Cookies

¿Aceptas nuestras cookies?

Aceptar
VAM | Vabird-VBD

Virtual Vabird! Aerolínea Virtual de habla hispana, desde 2011




 INFORMACIÓN METAR y TAF
METAR FOR WBGB
ADDS - METARS form results

(1131 UTC 24 October 2021)
Data provider http://aviationweather.gov/metar/data/
 
METAR text: WBGB 241100Z 00000KT 9999 FEW016 27/25 Q1009
Conditions at: WBGB (BINTULU/KALIMANT, MY) observed 1100 UTC 24 October 2021
Temperature: 27.0°C (81°F)
Dewpoint: 25.0°C (77°F) [RH = 89%]
Pressure (altimeter): 29.79 inches Hg (1009.0 mb)
Winds: calm
Visibility: 6 or more miles (10+ km)
Ceiling: at least 12,000 feet AGL
Clouds: few clouds at 1600 feet AGL
Weather: no significant weather observed at this time

Forecast for: WBGB (BINTULU/KALIMANT, MY)
Text: TAF WBGB 241100Z 2412/2512 14005KT 9999 FEW016
Forecast period: 1200 UTC 24 October 2021 to 1200 UTC 25 October 2021
Forecast type: FROM: standard forecast or significant change
Winds: from the SE (140 degrees) at 6 MPH (5 knots; 2.6 m/s)
Visibility: 6 or more miles (10+ km)
Ceiling: at least 12,000 feet AGL
Clouds: few clouds at 1600 feet AGL
Weather: no significant weather forecast for this period

 MAPA DE AEROPUERTO

 INFORMACIÓN DE PISTA